sensor_id;sensor_type;location;lat;lon;timestamp;pressure;altitude;pressure_sealevel;temperature;humidity
54600;BME280;40500;51.084;16.958;2023-02-23T00:00:01;100354.51;;;2.22;100.00
54600;BME280;40500;51.084;16.958;2023-02-23T00:02:43;100354.29;;;2.20;100.00
54600;BME280;40500;51.084;16.958;2023-02-23T00:05:13;100346.96;;;2.16;100.00
54600;BME280;40500;51.084;16.958;2023-02-23T00:07:45;100344.36;;;2.14;100.00
54600;BME280;40500;51.084;16.958;2023-02-23T00:10:15;100341.91;;;2.12;100.00
54600;BME280;40500;51.084;16.958;2023-02-23T00:12:48;100344.46;;;2.11;100.00
54600;BME280;40500;51.084;16.958;2023-02-23T00:15:18;100339.92;;;2.08;100.00
54600;BME280;40500;51.084;16.958;2023-02-23T00:17:48;100337.95;;;2.04;100.00
54600;BME280;40500;51.084;16.958;2023-02-23T00:20:20;100338.44;;;2.02;100.00
54600;BME280;40500;51.084;16.958;2023-02-23T00:22:55;100337.90;;;2.01;100.00
54600;BME280;40500;51.084;16.958;2023-02-23T00:25:26;100336.13;;;1.97;100.00
54600;BME280;40500;51.084;16.958;2023-02-23T00:27:59;100338.48;;;1.94;100.00
54600;BME280;40500;51.084;16.958;2023-02-23T00:30:30;100334.98;;;1.92;100.00
54600;BME280;40500;51.084;16.958;2023-02-23T00:33:00;100339.45;;;1.91;100.00
54600;BME280;40500;51.084;16.958;2023-02-23T00:35:34;100336.98;;;1.88;100.00
54600;BME280;40500;51.084;16.958;2023-02-23T00:38:05;100334.00;;;1.85;100.00
54600;BME280;40500;51.084;16.958;2023-02-23T00:40:36;100336.05;;;1.84;100.00
54600;BME280;40500;51.084;16.958;2023-02-23T00:43:08;100338.23;;;1.82;100.00
54600;BME280;40500;51.084;16.958;2023-02-23T00:45:39;100337.48;;;1.78;100.00
54600;BME280;40500;51.084;16.958;2023-02-23T00:48:11;100336.08;;;1.76;100.00
54600;BME280;40500;51.084;16.958;2023-02-23T00:50:41;100335.52;;;1.74;100.00
54600;BME280;40500;51.084;16.958;2023-02-23T00:53:11;100336.66;;;1.71;100.00
54600;BME280;40500;51.084;16.958;2023-02-23T00:55:42;100333.17;;;1.69;100.00
54600;BME280;40500;51.084;16.958;2023-02-23T00:58:13;100334.02;;;1.67;100.00
54600;BME280;40500;51.084;16.958;2023-02-23T01:00:43;100333.80;;;1.65;100.00
54600;BME280;40500;51.084;16.958;2023-02-23T01:03:14;100333.06;;;1.63;100.00
54600;BME280;40500;51.084;16.958;2023-02-23T01:05:44;100332.66;;;1.61;100.00
54600;BME280;40500;51.084;16.958;2023-02-23T01:08:18;100329.73;;;1.60;100.00
54600;BME280;40500;51.084;16.958;2023-02-23T01:10:49;100332.45;;;1.58;100.00
54600;BME280;40500;51.084;16.958;2023-02-23T01:13:21;100328.60;;;1.55;100.00
54600;BME280;40500;51.084;16.958;2023-02-23T01:15:52;100324.55;;;1.52;100.00
54600;BME280;40500;51.084;16.958;2023-02-23T01:18:27;100326.75;;;1.49;100.00
54600;BME280;40500;51.084;16.958;2023-02-23T01:20:58;100326.55;;;1.47;100.00
54600;BME280;40500;51.084;16.958;2023-02-23T01:23:30;100325.64;;;1.45;100.00
54600;BME280;40500;51.084;16.958;2023-02-23T01:26:01;100321.77;;;1.42;100.00
54600;BME280;40500;51.084;16.958;2023-02-23T01:28:33;100330.02;;;1.40;100.00
54600;BME280;40500;51.084;16.958;2023-02-23T01:31:08;100324.11;;;1.37;100.00
54600;BME280;40500;51.084;16.958;2023-02-23T01:33:39;100329.61;;;1.36;100.00
54600;BME280;40500;51.084;16.958;2023-02-23T01:36:10;100325.97;;;1.35;100.00
54600;BME280;40500;51.084;16.958;2023-02-23T01:38:41;100322.61;;;1.32;100.00
54600;BME280;40500;51.084;16.958;2023-02-23T01:41:11;100323.33;;;1.33;100.00
54600;BME280;40500;51.084;16.958;2023-02-23T01:43:57;100325.73;;;1.32;100.00
54600;BME280;40500;51.084;16.958;2023-02-23T01:46:31;100321.22;;;1.31;100.00
54600;BME280;40500;51.084;16.958;2023-02-23T01:49:04;100317.90;;;1.30;100.00
54600;BME280;40500;51.084;16.958;2023-02-23T01:51:40;100313.20;;;1.27;100.00
54600;BME280;40500;51.084;16.958;2023-02-23T01:54:15;100316.45;;;1.26;100.00
54600;BME280;40500;51.084;16.958;2023-02-23T01:56:52;100308.98;;;1.23;100.00
54600;BME280;40500;51.084;16.958;2023-02-23T01:59:29;100304.13;;;1.22;100.00
54600;BME280;40500;51.084;16.958;2023-02-23T02:02:02;100304.43;;;1.20;100.00
54600;BME280;40500;51.084;16.958;2023-02-23T02:04:35;100302.16;;;1.18;100.00
54600;BME280;40500;51.084;16.958;2023-02-23T02:07:15;100298.16;;;1.16;100.00
54600;BME280;40500;51.084;16.958;2023-02-23T02:09:51;100296.53;;;1.13;100.00
54600;BME280;40500;51.084;16.958;2023-02-23T02:12:53;100291.48;;;1.10;100.00
54600;BME280;40500;51.084;16.958;2023-02-23T02:15:32;100288.84;;;1.09;100.00
54600;BME280;40500;51.084;16.958;2023-02-23T02:18:13;100284.84;;;1.06;100.00
54600;BME280;40500;51.084;16.958;2023-02-23T02:24:20;100289.88;;;1.00;100.00
54600;BME280;40500;51.084;16.958;2023-02-23T02:27:12;100292.27;;;0.99;100.00
54600;BME280;40500;51.084;16.958;2023-02-23T02:30:17;100289.11;;;0.96;100.00
54600;BME280;40500;51.084;16.958;2023-02-23T02:33:08;100287.85;;;0.94;100.00
54600;BME280;40500;51.084;16.958;2023-02-23T02:38:52;100290.25;;;0.93;100.00
54600;BME280;40500;51.084;16.958;2023-02-23T02:41:32;100285.90;;;0.91;100.00
54600;BME280;40500;51.084;16.958;2023-02-23T02:44:13;100284.99;;;0.89;100.00
54600;BME280;40500;51.084;16.958;2023-02-23T02:46:48;100284.23;;;0.86;100.00
54600;BME280;40500;51.084;16.958;2023-02-23T02:49:28;100285.78;;;0.85;100.00
54600;BME280;40500;51.084;16.958;2023-02-23T02:52:04;100285.23;;;0.85;100.00
54600;BME280;40500;51.084;16.958;2023-02-23T02:54:41;100287.28;;;0.83;100.00
54600;BME280;40500;51.084;16.958;2023-02-23T02:57:17;100284.66;;;0.82;100.00
54600;BME280;40500;51.084;16.958;2023-02-23T02:59:49;100283.11;;;0.82;100.00
54600;BME280;40500;51.084;16.958;2023-02-23T03:02:39;100284.16;;;0.82;100.00
54600;BME280;40500;51.084;16.958;2023-02-23T03:05:33;100281.69;;;0.80;100.00
54600;BME280;40500;51.084;16.958;2023-02-23T03:08:29;100274.76;;;0.78;100.00
54600;BME280;40500;51.084;16.958;2023-02-23T03:11:20;100280.46;;;0.78;100.00
54600;BME280;40500;51.084;16.958;2023-02-23T03:14:19;100280.95;;;0.77;100.00
54600;BME280;40500;51.084;16.958;2023-02-23T03:17:17;100279.36;;;0.76;100.00
54600;BME280;40500;51.084;16.958;2023-02-23T03:20:19;100275.88;;;0.74;100.00
54600;BME280;40500;51.084;16.958;2023-02-23T03:23:15;100276.04;;;0.74;100.00
54600;BME280;40500;51.084;16.958;2023-02-23T03:26:10;100271.77;;;0.75;100.00
54600;BME280;40500;51.084;16.958;2023-02-23T03:29:06;100271.07;;;0.75;100.00
54600;BME280;40500;51.084;16.958;2023-02-23T03:32:05;100270.21;;;0.75;100.00
54600;BME280;40500;51.084;16.958;2023-02-23T03:35:00;100271.77;;;0.75;100.00
54600;BME280;40500;51.084;16.958;2023-02-23T03:37:55;100268.84;;;0.75;100.00
54600;BME280;40500;51.084;16.958;2023-02-23T03:40:46;100271.98;;;0.77;100.00
54600;BME280;40500;51.084;16.958;2023-02-23T03:43:42;100273.02;;;0.76;100.00
54600;BME280;40500;51.084;16.958;2023-02-23T03:46:35;100271.77;;;0.75;100.00
54600;BME280;40500;51.084;16.958;2023-02-23T03:49:27;100269.70;;;0.75;100.00
54600;BME280;40500;51.084;16.958;2023-02-23T03:52:20;100270.05;;;0.76;100.00
54600;BME280;40500;51.084;16.958;2023-02-23T03:55:16;100272.10;;;0.75;100.00
54600;BME280;40500;51.084;16.958;2023-02-23T03:58:07;100270.35;;;0.73;100.00
54600;BME280;40500;51.084;16.958;2023-02-23T04:01:00;100271.21;;;0.74;100.00
54600;BME280;40500;51.084;16.958;2023-02-23T04:03:51;100271.04;;;0.73;100.00
54600;BME280;40500;51.084;16.958;2023-02-23T04:06:44;100272.74;;;0.73;100.00
54600;BME280;40500;51.084;16.958;2023-02-23T04:09:33;100267.23;;;0.73;100.00
54600;BME280;40500;51.084;16.958;2023-02-23T04:12:28;100263.92;;;0.71;100.00
54600;BME280;40500;51.084;16.958;2023-02-23T04:15:25;100262.36;;;0.70;100.00
54600;BME280;40500;51.084;16.958;2023-02-23T04:17:56;100260.77;;;0.68;100.00
54600;BME280;40500;51.084;16.958;2023-02-23T04:20:27;100260.23;;;0.67;100.00
54600;BME280;40500;51.084;16.958;2023-02-23T04:22:57;100262.46;;;0.67;100.00
54600;BME280;40500;51.084;16.958;2023-02-23T04:25:29;100258.83;;;0.66;100.00
54600;BME280;40500;51.084;16.958;2023-02-23T04:28:00;100258.29;;;0.65;100.00
54600;BME280;40500;51.084;16.958;2023-02-23T04:30:30;100259.48;;;0.65;100.00
54600;BME280;40500;51.084;16.958;2023-02-23T04:33:00;100256.02;;;0.64;100.00
54600;BME280;40500;51.084;16.958;2023-02-23T04:35:31;100256.54;;;0.63;100.00
54600;BME280;40500;51.084;16.958;2023-02-23T04:38:01;100252.90;;;0.63;100.00
54600;BME280;40500;51.084;16.958;2023-02-23T04:40:32;100252.36;;;0.62;100.00
54600;BME280;40500;51.084;16.958;2023-02-23T04:43:03;100257.69;;;0.62;100.00
54600;BME280;40500;51.084;16.958;2023-02-23T04:45:33;100257.02;;;0.62;100.00
54600;BME280;40500;51.084;16.958;2023-02-23T04:48:05;100260.45;;;0.63;100.00
54600;BME280;40500;51.084;16.958;2023-02-23T04:50:35;100255.98;;;0.62;100.00
54600;BME280;40500;51.084;16.958;2023-02-23T04:53:06;100260.12;;;0.63;100.00
54600;BME280;40500;51.084;16.958;2023-02-23T04:55:36;100258.03;;;0.61;100.00
54600;BME280;40500;51.084;16.958;2023-02-23T04:58:07;100255.79;;;0.61;100.00
54600;BME280;40500;51.084;16.958;2023-02-23T05:00:41;100253.71;;;0.60;100.00
54600;BME280;40500;51.084;16.958;2023-02-23T05:03:12;100259.73;;;0.61;100.00
54600;BME280;40500;51.084;16.958;2023-02-23T05:05:43;100257.30;;;0.60;100.00
54600;BME280;40500;51.084;16.958;2023-02-23T05:08:14;100254.89;;;0.60;100.00
54600;BME280;40500;51.084;16.958;2023-02-23T05:10:46;100255.06;;;0.60;100.00
54600;BME280;40500;51.084;16.958;2023-02-23T05:13:16;100257.13;;;0.59;100.00
54600;BME280;40500;51.084;16.958;2023-02-23T05:15:47;100256.62;;;0.59;100.00
54600;BME280;40500;51.084;16.958;2023-02-23T05:18:17;100254.91;;;0.60;100.00
54600;BME280;40500;51.084;16.958;2023-02-23T05:20:48;100255.77;;;0.60;100.00
54600;BME280;40500;51.084;16.958;2023-02-23T05:23:19;100251.79;;;0.59;100.00
54600;BME280;40500;51.084;16.958;2023-02-23T05:25:49;100250.73;;;0.58;100.00
54600;BME280;40500;51.084;16.958;2023-02-23T05:28:20;100251.77;;;0.59;100.00
54600;BME280;40500;51.084;16.958;2023-02-23T05:30:51;100249.85;;;0.58;100.00
54600;BME280;40500;51.084;16.958;2023-02-23T05:33:21;100250.02;;;0.58;100.00
54600;BME280;40500;51.084;16.958;2023-02-23T05:35:52;100248.81;;;0.57;100.00
54600;BME280;40500;51.084;16.958;2023-02-23T05:38:22;100245.84;;;0.56;100.00
54600;BME280;40500;51.084;16.958;2023-02-23T05:40:53;100248.98;;;0.57;100.00
54600;BME280;40500;51.084;16.958;2023-02-23T05:43:25;100250.86;;;0.56;100.00
54600;BME280;40500;51.084;16.958;2023-02-23T05:46:04;100253.61;;;0.56;100.00
54600;BME280;40500;51.084;16.958;2023-02-23T05:48:35;100249.98;;;0.55;100.00
54600;BME280;40500;51.084;16.958;2023-02-23T05:51:08;100250.48;;;0.55;100.00
54600;BME280;40500;51.084;16.958;2023-02-23T05:53:40;100249.80;;;0.55;100.00
54600;BME280;40500;51.084;16.958;2023-02-23T05:56:13;100252.58;;;0.55;100.00
54600;BME280;40500;51.084;16.958;2023-02-23T05:58:49;100249.64;;;0.55;100.00
54600;BME280;40500;51.084;16.958;2023-02-23T06:01:20;100255.30;;;0.55;100.00
54600;BME280;40500;51.084;16.958;2023-02-23T06:03:51;100251.35;;;0.55;100.00
54600;BME280;40500;51.084;16.958;2023-02-23T06:06:22;100250.81;;;0.54;100.00
54600;BME280;40500;51.084;16.958;2023-02-23T06:08:54;100247.20;;;0.54;100.00
54600;BME280;40500;51.084;16.958;2023-02-23T06:11:24;100251.34;;;0.54;100.00
54600;BME280;40500;51.084;16.958;2023-02-23T06:13:55;100250.51;;;0.56;100.00
54600;BME280;40500;51.084;16.958;2023-02-23T06:16:27;100254.67;;;0.57;100.00
54600;BME280;40500;51.084;16.958;2023-02-23T06:18:58;100254.69;;;0.58;100.00
54600;BME280;40500;51.084;16.958;2023-02-23T06:21:29;100255.40;;;0.59;100.00
54600;BME280;40500;51.084;16.958;2023-02-23T06:23:59;100254.40;;;0.60;100.00
54600;BME280;40500;51.084;16.958;2023-02-23T06:26:30;100253.58;;;0.63;100.00
54600;BME280;40500;51.084;16.958;2023-02-23T06:29:02;100255.85;;;0.65;100.00
54600;BME280;40500;51.084;16.958;2023-02-23T06:31:32;100253.84;;;0.66;100.00
54600;BME280;40500;51.084;16.958;2023-02-23T06:34:04;100255.92;;;0.68;100.00
54600;BME280;40500;51.084;16.958;2023-02-23T06:36:37;100255.45;;;0.69;100.00
54600;BME280;40500;51.084;16.958;2023-02-23T06:39:11;100257.40;;;0.72;100.00
54600;BME280;40500;51.084;16.958;2023-02-23T06:41:41;100257.30;;;0.75;100.00
54600;BME280;40500;51.084;16.958;2023-02-23T06:44:12;100253.05;;;0.78;100.00
54600;BME280;40500;51.084;16.958;2023-02-23T06:46:43;100253.65;;;0.82;100.00
54600;BME280;40500;51.084;16.958;2023-02-23T06:49:13;100248.36;;;0.85;100.00
54600;BME280;40500;51.084;16.958;2023-02-23T06:51:44;100249.59;;;0.86;100.00
54600;BME280;40500;51.084;16.958;2023-02-23T06:54:15;100249.46;;;0.88;100.00
54600;BME280;40500;51.084;16.958;2023-02-23T06:56:47;100245.56;;;0.91;100.00
54600;BME280;40500;51.084;16.958;2023-02-23T06:59:18;100251.02;;;0.97;100.00
54600;BME280;40500;51.084;16.958;2023-02-23T07:01:48;100247.64;;;0.99;100.00
54600;BME280;40500;51.084;16.958;2023-02-23T07:04:19;100250.30;;;1.03;100.00
54600;BME280;40500;51.084;16.958;2023-02-23T07:06:49;100245.02;;;1.07;100.00
54600;BME280;40500;51.084;16.958;2023-02-23T07:09:20;100248.94;;;1.13;100.00
54600;BME280;40500;51.084;16.958;2023-02-23T07:11:52;100248.67;;;1.17;100.00
54600;BME280;40500;51.084;16.958;2023-02-23T07:14:23;100251.69;;;1.21;100.00
54600;BME280;40500;51.084;16.958;2023-02-23T07:16:55;100251.58;;;1.25;100.00
54600;BME280;40500;51.084;16.958;2023-02-23T07:19:25;100253.07;;;1.30;100.00
54600;BME280;40500;51.084;16.958;2023-02-23T07:21:56;100248.67;;;1.35;100.00
54600;BME280;40500;51.084;16.958;2023-02-23T07:24:28;100247.39;;;1.41;100.00
54600;BME280;40500;51.084;16.958;2023-02-23T07:26:59;100249.40;;;1.46;100.00
54600;BME280;40500;51.084;16.958;2023-02-23T07:29:29;100245.52;;;1.51;100.00
54600;BME280;40500;51.084;16.958;2023-02-23T07:32:00;100244.59;;;1.57;100.00
54600;BME280;40500;51.084;16.958;2023-02-23T07:34:30;100238.42;;;1.60;100.00
54600;BME280;40500;51.084;16.958;2023-02-23T07:37:01;100241.48;;;1.67;100.00
54600;BME280;40500;51.084;16.958;2023-02-23T07:39:31;100235.53;;;1.72;100.00
54600;BME280;40500;51.084;16.958;2023-02-23T07:42:02;100234.81;;;1.81;100.00
54600;BME280;40500;51.084;16.958;2023-02-23T07:44:32;100232.20;;;1.90;100.00
54600;BME280;40500;51.084;16.958;2023-02-23T07:47:03;100230.83;;;2.01;100.00
54600;BME280;40500;51.084;16.958;2023-02-23T07:49:34;100233.23;;;2.10;100.00
54600;BME280;40500;51.084;16.958;2023-02-23T07:52:05;100232.47;;;2.30;100.00
54600;BME280;40500;51.084;16.958;2023-02-23T07:54:36;100228.56;;;2.45;100.00
54600;BME280;40500;51.084;16.958;2023-02-23T07:57:06;100229.55;;;2.54;100.00
54600;BME280;40500;51.084;16.958;2023-02-23T07:59:38;100230.16;;;2.62;100.00
54600;BME280;40500;51.084;16.958;2023-02-23T08:02:12;100228.13;;;2.64;100.00
54600;BME280;40500;51.084;16.958;2023-02-23T08:04:43;100229.71;;;2.66;100.00
54600;BME280;40500;51.084;16.958;2023-02-23T08:07:13;100222.86;;;2.70;100.00
54600;BME280;40500;51.084;16.958;2023-02-23T08:09:44;100224.67;;;2.77;100.00
54600;BME280;40500;51.084;16.958;2023-02-23T08:12:14;100224.07;;;2.85;100.00
54600;BME280;40500;51.084;16.958;2023-02-23T08:14:45;100216.38;;;2.91;100.00
54600;BME280;40500;51.084;16.958;2023-02-23T08:17:16;100222.91;;;3.04;100.00
54600;BME280;40500;51.084;16.958;2023-02-23T08:20:02;100220.10;;;3.16;100.00
54600;BME280;40500;51.084;16.958;2023-02-23T08:22:34;100217.79;;;3.25;100.00
54600;BME280;40500;51.084;16.958;2023-02-23T08:25:18;100215.11;;;3.34;100.00
54600;BME280;40500;51.084;16.958;2023-02-23T08:27:49;100218.86;;;3.44;100.00
54600;BME280;40500;51.084;16.958;2023-02-23T08:30:23;100218.98;;;3.58;100.00
54600;BME280;40500;51.084;16.958;2023-02-23T08:32:53;100213.02;;;3.68;100.00
54600;BME280;40500;51.084;16.958;2023-02-23T08:35:24;100211.53;;;3.76;100.00
54600;BME280;40500;51.084;16.958;2023-02-23T08:37:55;100214.73;;;3.84;100.00
54600;BME280;40500;51.084;16.958;2023-02-23T08:40:26;100215.48;;;3.91;100.00
54600;BME280;40500;51.084;16.958;2023-02-23T08:42:56;100212.95;;;4.01;100.00
54600;BME280;40500;51.084;16.958;2023-02-23T08:45:27;100208.52;;;4.10;100.00
54600;BME280;40500;51.084;16.958;2023-02-23T08:48:00;100213.27;;;4.20;100.00
54600;BME280;40500;51.084;16.958;2023-02-23T08:50:31;100210.85;;;4.23;100.00
54600;BME280;40500;51.084;16.958;2023-02-23T08:53:03;100215.20;;;4.24;100.00
54600;BME280;40500;51.084;16.958;2023-02-23T08:55:37;100212.64;;;4.30;100.00
54600;BME280;40500;51.084;16.958;2023-02-23T08:58:09;100209.22;;;4.36;100.00
54600;BME280;40500;51.084;16.958;2023-02-23T09:00:44;100209.77;;;4.42;100.00
54600;BME280;40500;51.084;16.958;2023-02-23T09:03:19;100203.41;;;4.51;100.00
54600;BME280;40500;51.084;16.958;2023-02-23T09:05:50;100200.00;;;4.63;100.00
54600;BME280;40500;51.084;16.958;2023-02-23T09:08:23;100204.22;;;4.75;100.00
54600;BME280;40500;51.084;16.958;2023-02-23T09:10:55;100205.29;;;4.80;100.00
54600;BME280;40500;51.084;16.958;2023-02-23T09:13:26;100203.21;;;4.83;100.00
54600;BME280;40500;51.084;16.958;2023-02-23T09:15:57;100205.67;;;4.92;100.00
54600;BME280;40500;51.084;16.958;2023-02-23T09:18:28;100208.83;;;4.99;100.00
54600;BME280;40500;51.084;16.958;2023-02-23T09:21:01;100206.25;;;5.06;100.00
54600;BME280;40500;51.084;16.958;2023-02-23T09:23:36;100203.14;;;5.14;100.00
54600;BME280;40500;51.084;16.958;2023-02-23T09:26:09;100201.25;;;5.18;100.00
54600;BME280;40500;51.084;16.958;2023-02-23T09:28:41;100193.65;;;5.29;100.00
54600;BME280;40500;51.084;16.958;2023-02-23T09:31:14;100190.71;;;5.36;100.00
54600;BME280;40500;51.084;16.958;2023-02-23T09:33:49;100186.90;;;5.44;100.00
54600;BME280;40500;51.084;16.958;2023-02-23T09:36:21;100182.22;;;5.48;100.00
54600;BME280;40500;51.084;16.958;2023-02-23T09:38:54;100178.75;;;5.56;100.00
54600;BME280;40500;51.084;16.958;2023-02-23T09:44:46;100177.19;;;5.72;100.00
54600;BME280;40500;51.084;16.958;2023-02-23T09:47:39;100172.16;;;5.78;100.00
54600;BME280;40500;51.084;16.958;2023-02-23T09:52:55;100169.74;;;5.95;100.00
54600;BME280;40500;51.084;16.958;2023-02-23T09:55:28;100168.54;;;6.02;100.00
54600;BME280;40500;51.084;16.958;2023-02-23T09:58:05;100166.45;;;6.05;100.00
54600;BME280;40500;51.084;16.958;2023-02-23T10:00:42;100164.02;;;6.06;100.00
54600;BME280;40500;51.084;16.958;2023-02-23T10:03:22;100166.60;;;6.11;100.00
54600;BME280;40500;51.084;16.958;2023-02-23T10:05:58;100165.91;;;6.16;100.00
54600;BME280;40500;51.084;16.958;2023-02-23T10:08:47;100163.80;;;6.21;100.00
54600;BME280;40500;51.084;16.958;2023-02-23T10:11:25;100161.19;;;6.26;100.00
54600;BME280;40500;51.084;16.958;2023-02-23T10:14:09;100160.81;;;6.37;100.00
54600;BME280;40500;51.084;16.958;2023-02-23T10:16:53;100162.88;;;6.45;100.00
54600;BME280;40500;51.084;16.958;2023-02-23T10:19:30;100158.00;;;6.49;100.00
54600;BME280;40500;51.084;16.958;2023-02-23T10:22:07;100156.76;;;6.54;100.00
54600;BME280;40500;51.084;16.958;2023-02-23T10:24:41;100154.66;;;6.60;100.00
54600;BME280;40500;51.084;16.958;2023-02-23T10:27:17;100152.38;;;6.61;100.00
54600;BME280;40500;51.084;16.958;2023-02-23T10:29:52;100143.16;;;6.62;100.00
54600;BME280;40500;51.084;16.958;2023-02-23T10:32:31;100141.94;;;6.63;100.00
54600;BME280;40500;51.084;16.958;2023-02-23T10:35:13;100142.94;;;6.72;100.00
54600;BME280;40500;51.084;16.958;2023-02-23T10:37:46;100140.64;;;6.82;100.00
54600;BME280;40500;51.084;16.958;2023-02-23T10:40:21;100137.13;;;6.88;100.00
54600;BME280;40500;51.084;16.958;2023-02-23T10:42:54;100135.01;;;6.94;100.00
54600;BME280;40500;51.084;16.958;2023-02-23T10:45:27;100130.81;;;6.96;100.00
54600;BME280;40500;51.084;16.958;2023-02-23T10:48:04;100127.33;;;6.98;100.00
54600;BME280;40500;51.084;16.958;2023-02-23T10:50:37;100122.60;;;7.02;100.00
54600;BME280;40500;51.084;16.958;2023-02-23T10:53:13;100117.01;;;7.06;100.00
54600;BME280;40500;51.084;16.958;2023-02-23T10:55:46;100114.89;;;7.10;100.00
54600;BME280;40500;51.084;16.958;2023-02-23T10:58:29;100115.22;;;7.13;100.00
54600;BME280;40500;51.084;16.958;2023-02-23T11:01:05;100111.39;;;7.14;100.00
54600;BME280;40500;51.084;16.958;2023-02-23T11:03:38;100105.28;;;7.17;100.00
54600;BME280;40500;51.084;16.958;2023-02-23T11:06:29;100102.83;;;7.19;100.00
54600;BME280;40500;51.084;16.958;2023-02-23T11:09:20;100102.06;;;7.27;100.00
54600;BME280;40500;51.084;16.958;2023-02-23T11:12:18;100098.52;;;7.33;100.00
54600;BME280;40500;51.084;16.958;2023-02-23T11:14:53;100098.81;;;7.43;100.00
54600;BME280;40500;51.084;16.958;2023-02-23T11:17:30;100092.98;;;7.51;100.00
54600;BME280;40500;51.084;16.958;2023-02-23T11:20:05;100090.66;;;7.60;100.00
54600;BME280;40500;51.084;16.958;2023-02-23T11:22:37;100089.75;;;7.64;100.00
54600;BME280;40500;51.084;16.958;2023-02-23T11:25:17;100081.52;;;7.68;100.00
54600;BME280;40500;51.084;16.958;2023-02-23T11:27:50;100080.06;;;7.73;100.00
54600;BME280;40500;51.084;16.958;2023-02-23T11:30:38;100074.80;;;7.78;100.00
54600;BME280;40500;51.084;16.958;2023-02-23T11:33:17;100069.53;;;7.83;100.00
54600;BME280;40500;51.084;16.958;2023-02-23T11:36:11;100073.33;;;7.86;100.00
54600;BME280;40500;51.084;16.958;2023-02-23T11:39:19;100066.85;;;7.89;100.00
54600;BME280;40500;51.084;16.958;2023-02-23T11:42:15;100070.46;;;7.94;100.00
54600;BME280;40500;51.084;16.958;2023-02-23T11:44:50;100066.36;;;8.02;100.00
54600;BME280;40500;51.084;16.958;2023-02-23T11:47:23;100060.48;;;8.13;100.00
54600;BME280;40500;51.084;16.958;2023-02-23T11:49:54;100057.40;;;8.23;100.00
54600;BME280;40500;51.084;16.958;2023-02-23T11:52:27;100051.71;;;8.31;100.00
54600;BME280;40500;51.084;16.958;2023-02-23T11:55:00;100054.73;;;8.44;100.00
54600;BME280;40500;51.084;16.958;2023-02-23T11:57:34;100047.48;;;8.52;100.00
54600;BME280;40500;51.084;16.958;2023-02-23T12:00:19;100040.67;;;8.64;100.00
54600;BME280;40500;51.084;16.958;2023-02-23T12:02:54;100037.68;;;8.80;100.00
54600;BME280;40500;51.084;16.958;2023-02-23T12:05:28;100034.38;;;8.90;100.00
54600;BME280;40500;51.084;16.958;2023-02-23T12:08:05;100027.23;;;9.01;100.00
54600;BME280;40500;51.084;16.958;2023-02-23T12:10:40;100020.23;;;9.12;100.00
54600;BME280;40500;51.084;16.958;2023-02-23T12:13:22;100021.85;;;9.20;100.00
54600;BME280;40500;51.084;16.958;2023-02-23T12:15:57;100018.70;;;9.31;100.00
54600;BME280;40500;51.084;16.958;2023-02-23T12:18:41;100017.15;;;9.40;100.00
54600;BME280;40500;51.084;16.958;2023-02-23T12:21:33;100013.45;;;9.52;100.00
54600;BME280;40500;51.084;16.958;2023-02-23T12:24:17;100010.77;;;9.64;100.00
54600;BME280;40500;51.084;16.958;2023-02-23T12:26:52;100006.45;;;9.71;100.00
54600;BME280;40500;51.084;16.958;2023-02-23T12:29:29;100007.71;;;9.79;100.00
54600;BME280;40500;51.084;16.958;2023-02-23T12:32:03;100003.44;;;9.92;100.00
54600;BME280;40500;51.084;16.958;2023-02-23T12:34:40;99997.77;;;10.05;100.00
54600;BME280;40500;51.084;16.958;2023-02-23T12:37:24;99999.10;;;10.16;100.00
54600;BME280;40500;51.084;16.958;2023-02-23T12:40:10;99993.12;;;10.27;100.00
54600;BME280;40500;51.084;16.958;2023-02-23T12:42:53;99990.73;;;10.41;100.00
54600;BME280;40500;51.084;16.958;2023-02-23T12:45:31;99986.45;;;10.60;100.00
54600;BME280;40500;51.084;16.958;2023-02-23T12:48:13;99985.93;;;10.75;100.00
54600;BME280;40500;51.084;16.958;2023-02-23T12:50:52;99983.36;;;10.95;100.00
54600;BME280;40500;51.084;16.958;2023-02-23T12:53:27;99976.23;;;11.21;100.00
54600;BME280;40500;51.084;16.958;2023-02-23T12:56:09;99976.57;;;11.55;100.00
54600;BME280;40500;51.084;16.958;2023-02-23T12:58:56;99971.36;;;11.93;100.00
54600;BME280;40500;51.084;16.958;2023-02-23T13:01:32;99965.00;;;12.42;100.00
54600;BME280;40500;51.084;16.958;2023-02-23T13:04:41;99962.91;;;12.97;100.00
54600;BME280;40500;51.084;16.958;2023-02-23T13:07:21;99959.42;;;13.44;100.00
54600;BME280;40500;51.084;16.958;2023-02-23T13:10:04;99952.57;;;13.74;100.00
54600;BME280;40500;51.084;16.958;2023-02-23T13:12:51;99950.09;;;13.84;100.00
54600;BME280;40500;51.084;16.958;2023-02-23T13:15:32;99949.15;;;13.86;100.00
54600;BME280;40500;51.084;16.958;2023-02-23T13:18:13;99948.17;;;13.93;100.00
54600;BME280;40500;51.084;16.958;2023-02-23T13:20:56;99942.96;;;14.10;100.00
54600;BME280;40500;51.084;16.958;2023-02-23T13:23:37;99942.32;;;14.37;100.00
54600;BME280;40500;51.084;16.958;2023-02-23T13:26:21;99939.90;;;14.80;100.00
54600;BME280;40500;51.084;16.958;2023-02-23T13:29:01;99935.65;;;15.32;100.00
54600;BME280;40500;51.084;16.958;2023-02-23T13:31:35;99931.02;;;15.73;100.00
54600;BME280;40500;51.084;16.958;2023-02-23T13:34:12;99929.39;;;16.25;100.00
54600;BME280;40500;51.084;16.958;2023-02-23T13:36:47;99920.64;;;17.03;100.00
54600;BME280;40500;51.084;16.958;2023-02-23T13:39:41;99919.92;;;17.29;100.00